createdAt,value
2023-01-02T00:01:32.827Z,89.00
2023-01-02T00:04:38.228Z,87.40
2023-01-02T00:07:43.390Z,91.00
2023-01-02T00:10:52.644Z,83.10
2023-01-02T00:13:58.481Z,95.05
2023-01-02T00:17:03.806Z,93.60
2023-01-02T00:20:09.692Z,85.97
2023-01-02T00:23:14.885Z,88.38
2023-01-02T00:26:20.500Z,96.13
2023-01-02T00:29:26.072Z,100.70
2023-01-02T00:32:31.426Z,101.50
2023-01-02T00:35:38.319Z,106.13
2023-01-02T00:38:43.497Z,103.45
2023-01-02T00:41:48.809Z,100.20
2023-01-02T00:44:54.069Z,107.85
2023-01-02T00:47:59.387Z,105.30
2023-01-02T00:51:04.705Z,104.22
2023-01-02T00:54:10.261Z,98.28
2023-01-02T00:57:15.494Z,93.70
2023-01-02T01:00:24.033Z,95.75
2023-01-02T01:03:30.340Z,83.68
2023-01-02T01:06:35.623Z,88.88
2023-01-02T01:09:41.000Z,83.63
2023-01-02T01:12:46.227Z,88.93
2023-01-02T01:15:51.289Z,86.63
2023-01-02T01:18:57.906Z,87.03
2023-01-02T01:22:03.767Z,94.35
2023-01-02T01:25:09.517Z,94.40
2023-01-02T01:28:14.758Z,87.88
2023-01-02T01:31:21.475Z,97.70
2023-01-02T01:34:26.696Z,90.97
2023-01-02T01:37:32.357Z,99.15
2023-01-02T01:40:39.959Z,98.68
2023-01-02T01:44:00.322Z,99.82
2023-01-02T01:47:06.110Z,105.03
2023-01-02T01:50:26.770Z,105.75
2023-01-02T01:53:32.820Z,100.22
2023-01-02T01:56:43.959Z,107.88
2023-01-02T01:59:50.456Z,116.65
2023-01-02T02:03:04.822Z,123.78
2023-01-02T02:06:10.964Z,127.10
2023-01-02T02:09:25.222Z,136.55
2023-01-02T02:12:33.293Z,124.93
2023-01-02T02:15:47.420Z,131.70
2023-01-02T02:19:29.462Z,134.63
2023-01-02T02:26:30.957Z,137.73
2023-01-02T02:29:57.401Z,141.45
2023-01-02T02:33:47.851Z,140.57
2023-01-02T02:37:01.256Z,163.52
2023-01-02T02:40:43.756Z,127.03
2023-01-02T02:44:06.272Z,157.07
2023-01-02T02:47:22.518Z,158.38
2023-01-02T02:50:40.353Z,140.18
2023-01-02T02:53:54.192Z,127.78
2023-01-02T02:57:00.852Z,148.48
2023-01-02T03:00:09.051Z,132.30
2023-01-02T03:03:22.937Z,130.15
2023-01-02T03:06:45.823Z,133.93
2023-01-02T03:10:00.396Z,148.13
2023-01-02T03:13:24.672Z,134.45
2023-01-02T03:16:40.880Z,155.23
2023-01-02T03:19:52.890Z,136.88
2023-01-02T03:23:04.430Z,145.20
2023-01-02T03:26:13.469Z,116.45
2023-01-02T03:29:30.737Z,138.70
2023-01-02T03:32:43.345Z,118.43
2023-01-02T03:35:55.988Z,122.40
2023-01-02T03:39:08.173Z,129.60
2023-01-02T03:42:21.457Z,135.48
2023-01-02T03:45:34.224Z,113.15
2023-01-02T03:49:17.083Z,117.97
2023-01-02T03:52:26.087Z,115.93
2023-01-02T03:55:35.343Z,127.30
2023-01-02T03:58:53.546Z,115.68
2023-01-02T04:02:07.697Z,122.00
2023-01-02T04:05:24.825Z,126.40
2023-01-02T04:08:45.307Z,135.40
2023-01-02T04:12:00.585Z,116.97
2023-01-02T04:15:12.624Z,109.25
2023-01-02T04:18:30.572Z,123.00
2023-01-02T04:21:40.590Z,112.07
2023-01-02T04:24:52.459Z,120.65
2023-01-02T04:28:23.570Z,114.57
2023-01-02T04:31:42.981Z,116.43
2023-01-02T04:34:50.257Z,117.57
2023-01-02T04:37:56.049Z,126.60
2023-01-02T04:41:04.691Z,127.10
2023-01-02T04:44:10.096Z,126.07
2023-01-02T04:47:21.514Z,127.38
2023-01-02T04:50:27.670Z,132.48
2023-01-02T04:53:33.463Z,124.60
2023-01-02T04:56:38.954Z,143.20
2023-01-02T04:59:44.253Z,119.38
2023-01-02T05:02:49.575Z,130.90
2023-01-02T05:06:01.733Z,126.22
2023-01-02T05:09:07.204Z,123.75
2023-01-02T05:12:12.361Z,130.35
2023-01-02T05:15:17.722Z,144.48
2023-01-02T05:18:23.456Z,122.00
2023-01-02T05:21:47.503Z,117.15
2023-01-02T05:24:52.628Z,117.63
2023-01-02T05:27:58.530Z,117.15
2023-01-02T05:31:04.208Z,114.80
2023-01-02T05:34:13.947Z,118.57
2023-01-02T05:37:19.198Z,110.88
2023-01-02T05:40:24.747Z,114.90
2023-01-02T05:43:36.316Z,110.65
2023-01-02T05:46:42.038Z,109.82
2023-01-02T05:49:47.726Z,106.50
2023-01-02T05:52:53.204Z,107.68
2023-01-02T05:56:10.587Z,93.40
2023-01-02T05:59:16.540Z,121.38
2023-01-02T06:02:23.931Z,106.88
2023-01-02T06:05:29.754Z,118.13
2023-01-02T06:08:35.970Z,112.10
2023-01-02T06:11:42.325Z,110.57
2023-01-02T06:14:47.932Z,107.35
2023-01-02T06:17:53.676Z,108.15
2023-01-02T06:21:04.438Z,114.97
2023-01-02T06:24:10.228Z,105.88
2023-01-02T06:27:15.788Z,100.20
2023-01-02T06:30:20.939Z,110.63
2023-01-02T06:33:26.329Z,106.93
2023-01-02T06:36:34.586Z,116.60
2023-01-02T06:39:40.186Z,116.15
2023-01-02T06:42:45.807Z,120.35
2023-01-02T06:45:52.026Z,115.82
2023-01-02T06:48:58.227Z,100.95
2023-01-02T06:52:03.743Z,112.63
2023-01-02T06:55:09.683Z,107.95
2023-01-02T06:58:19.329Z,111.93
2023-01-02T07:01:25.396Z,107.20
2023-01-02T07:04:30.882Z,112.40
2023-01-02T07:07:36.236Z,104.63
2023-01-02T07:10:41.462Z,109.38
2023-01-02T07:13:50.863Z,101.88
2023-01-02T07:16:56.370Z,111.05
2023-01-02T07:20:02.402Z,115.13
2023-01-02T07:23:08.223Z,108.18
2023-01-02T07:26:14.286Z,115.28
2023-01-02T07:29:19.709Z,115.65
2023-01-02T07:32:27.516Z,118.15
2023-01-02T07:35:33.645Z,115.10
2023-01-02T07:38:39.780Z,109.55
2023-01-02T07:41:45.601Z,113.97
2023-01-02T07:44:53.505Z,109.13
2023-01-02T07:47:59.321Z,120.63
2023-01-02T07:51:08.491Z,107.32
2023-01-02T07:54:14.034Z,109.97
2023-01-02T07:57:19.871Z,98.65
2023-01-02T08:00:25.497Z,110.97
2023-01-02T08:03:32.850Z,115.53
2023-01-02T08:06:41.794Z,105.50
2023-01-02T08:09:47.574Z,110.35
2023-01-02T08:12:53.057Z,102.72
2023-01-02T08:15:58.639Z,126.88
2023-01-02T08:19:04.363Z,120.43
2023-01-02T08:22:10.185Z,116.60
2023-01-02T08:25:16.726Z,124.30
2023-01-02T08:28:22.424Z,112.65
2023-01-02T08:31:28.183Z,109.05
2023-01-02T08:34:35.378Z,124.75
2023-01-02T08:37:43.377Z,129.88
2023-01-02T08:40:52.741Z,120.80
2023-01-02T08:43:59.137Z,126.38
2023-01-02T08:47:05.958Z,116.57
2023-01-02T08:50:11.527Z,119.65
2023-01-02T08:53:18.080Z,116.20
2023-01-02T08:56:26.754Z,118.00
2023-01-02T08:59:32.690Z,112.75
2023-01-02T09:02:38.551Z,116.20
2023-01-02T09:05:44.291Z,127.45
2023-01-02T09:08:55.745Z,117.00
2023-01-02T09:12:01.744Z,111.78
2023-01-02T09:15:08.110Z,103.18
2023-01-02T09:18:13.460Z,108.32
2023-01-02T09:21:19.418Z,109.63
2023-01-02T09:24:25.037Z,110.65
2023-01-02T09:27:30.912Z,98.93
2023-01-02T09:30:36.930Z,102.25
2023-01-02T09:33:44.016Z,97.97
2023-01-02T09:36:49.500Z,98.80
2023-01-02T09:39:55.336Z,118.47
2023-01-02T09:43:01.694Z,86.32
2023-01-02T09:46:20.513Z,89.82
2023-01-02T09:49:33.363Z,97.72
2023-01-02T09:52:43.588Z,103.80
2023-01-02T09:56:17.729Z,94.68
2023-01-02T09:59:34.228Z,98.07
2023-01-02T10:03:07.629Z,98.80
2023-01-02T10:06:33.778Z,100.40
2023-01-02T10:10:01.027Z,109.90
2023-01-02T10:13:21.676Z,82.90
2023-01-02T10:16:38.116Z,93.00
2023-01-02T10:20:08.359Z,90.53
2023-01-02T10:23:20.441Z,93.70
2023-01-02T10:26:32.914Z,84.50
2023-01-02T10:30:02.298Z,87.85
2023-01-02T10:33:19.294Z,97.72
2023-01-02T10:36:32.252Z,86.10
2023-01-02T10:39:38.172Z,108.35
2023-01-02T10:42:44.653Z,98.63
2023-01-02T10:45:50.418Z,87.88
2023-01-02T10:48:57.746Z,83.20
2023-01-02T10:52:27.432Z,90.28
2023-01-02T10:55:44.517Z,91.13
2023-01-02T10:58:53.467Z,85.47
2023-01-02T11:02:00.746Z,88.25
2023-01-02T11:05:09.172Z,77.40
2023-01-02T11:08:20.326Z,78.43
2023-01-02T11:11:27.665Z,84.77
2023-01-02T11:14:35.679Z,78.88
2023-01-02T11:17:44.439Z,79.85
2023-01-02T11:20:55.360Z,84.20
2023-01-02T11:24:05.387Z,83.38
2023-01-02T11:27:11.001Z,87.47
2023-01-02T11:30:43.165Z,76.93
2023-01-02T11:33:48.713Z,84.40
2023-01-02T11:37:09.405Z,85.75
2023-01-02T11:40:28.327Z,79.75
2023-01-02T11:43:52.300Z,86.38
2023-01-02T11:46:58.723Z,82.85
2023-01-02T11:50:05.459Z,88.05
2023-01-02T11:53:13.938Z,82.32
2023-01-02T11:56:30.779Z,89.03
2023-01-02T11:59:45.638Z,77.53
2023-01-02T12:02:54.734Z,80.72
2023-01-02T12:06:23.665Z,89.53
2023-01-02T12:09:56.263Z,74.72
2023-01-02T12:13:27.814Z,90.43
2023-01-02T12:16:59.544Z,65.75
2023-01-02T12:20:26.557Z,89.15
2023-01-02T12:23:46.618Z,82.80
2023-01-02T12:27:18.842Z,76.00
2023-01-02T12:30:24.085Z,79.03
2023-01-02T12:33:39.081Z,77.75
2023-01-02T12:36:50.772Z,84.25
2023-01-02T12:40:05.179Z,97.13
2023-01-02T12:43:29.546Z,75.78
2023-01-02T12:46:40.790Z,84.30
2023-01-02T12:50:22.137Z,72.28
2023-01-02T12:53:42.454Z,75.18
2023-01-02T12:57:16.923Z,73.57
2023-01-02T13:01:03.067Z,75.40
2023-01-02T13:04:20.967Z,70.80
2023-01-02T13:07:35.841Z,68.40
2023-01-02T13:10:41.745Z,74.47
2023-01-02T13:13:47.623Z,62.60
2023-01-02T13:17:19.486Z,72.88
2023-01-02T13:20:31.228Z,64.93
2023-01-02T13:23:49.003Z,63.40
2023-01-02T13:26:57.020Z,72.30
2023-01-02T13:30:03.573Z,70.68
2023-01-02T13:33:34.090Z,74.53
2023-01-02T13:36:46.615Z,70.00
2023-01-02T13:40:04.556Z,72.18
2023-01-02T13:43:17.127Z,66.47
2023-01-02T13:50:24.103Z,69.20
2023-01-02T13:53:33.300Z,56.97
2023-01-02T13:57:17.064Z,60.78
2023-01-02T14:00:37.832Z,59.13
2023-01-02T14:03:43.184Z,48.75
2023-01-02T14:06:53.811Z,54.08
2023-01-02T14:10:11.732Z,49.22
2023-01-02T14:13:25.972Z,45.35
2023-01-02T14:16:34.284Z,52.80
2023-01-02T14:19:39.824Z,57.03
2023-01-02T14:22:53.308Z,44.90
2023-01-02T14:29:16.994Z,51.92
2023-01-02T14:32:34.349Z,51.13
2023-01-02T14:35:48.594Z,58.75
2023-01-02T14:38:57.026Z,57.05
2023-01-02T14:42:51.280Z,49.17
2023-01-02T14:46:13.305Z,46.03
2023-01-02T14:49:27.118Z,49.05
2023-01-02T14:52:38.007Z,49.13
2023-01-02T14:55:45.785Z,52.92
2023-01-02T14:58:53.643Z,55.97
2023-01-02T15:02:07.200Z,51.67
2023-01-02T15:05:19.098Z,56.03
2023-01-02T15:08:34.396Z,55.35
2023-01-02T15:12:16.183Z,54.05
2023-01-02T15:15:28.622Z,53.70
2023-01-02T15:18:35.761Z,43.90
2023-01-02T15:21:40.966Z,53.58
2023-01-02T15:24:53.319Z,48.17
2023-01-02T15:31:12.963Z,56.83
2023-01-02T15:34:25.904Z,54.55
2023-01-02T15:37:31.742Z,56.95
2023-01-02T15:40:38.197Z,54.42
2023-01-02T15:44:02.477Z,48.92
2023-01-02T15:47:10.185Z,50.20
2023-01-02T15:50:22.645Z,63.42
2023-01-02T15:53:43.160Z,59.05
2023-01-02T15:56:49.368Z,60.05
2023-01-02T15:59:56.186Z,56.83
2023-01-02T16:03:02.846Z,56.45
2023-01-02T16:06:14.699Z,61.28
2023-01-02T16:09:27.308Z,67.88
2023-01-02T16:12:33.779Z,65.63
2023-01-02T16:15:39.211Z,68.10
2023-01-02T16:18:59.075Z,59.33
2023-01-02T16:22:18.204Z,60.47
2023-01-02T16:25:29.389Z,63.95
2023-01-02T16:28:40.866Z,64.80
2023-01-02T16:32:01.308Z,64.18
2023-01-02T16:35:21.927Z,65.28
2023-01-02T16:38:28.465Z,64.05
2023-01-02T16:41:48.331Z,63.03
2023-01-02T16:44:56.126Z,57.72
2023-01-02T16:48:03.808Z,61.13
2023-01-02T16:51:09.834Z,77.47
2023-01-02T16:54:16.512Z,75.93
2023-01-02T16:57:23.563Z,75.85
2023-01-02T17:00:28.926Z,66.72
2023-01-02T17:03:33.945Z,68.97
2023-01-02T17:06:39.550Z,69.50
2023-01-02T17:09:44.675Z,70.15
2023-01-02T17:12:49.967Z,64.25
2023-01-02T17:15:56.238Z,67.30
2023-01-02T17:19:02.071Z,68.75
2023-01-02T17:22:07.617Z,61.28
2023-01-02T17:25:15.939Z,66.25
2023-01-02T17:28:21.776Z,67.60
2023-01-02T17:31:27.372Z,73.10
2023-01-02T17:34:34.394Z,81.57
2023-01-02T17:37:40.209Z,81.47
2023-01-02T17:40:46.396Z,85.82
2023-01-02T17:44:02.484Z,73.28
2023-01-02T17:47:39.286Z,82.43
2023-01-02T17:50:36.433Z,68.32
2023-01-02T17:53:48.241Z,72.07
2023-01-02T17:56:54.283Z,78.75
2023-01-02T17:59:59.701Z,71.63
2023-01-02T18:03:05.499Z,64.40
2023-01-02T18:06:12.270Z,84.65
2023-01-02T18:09:19.688Z,85.00
2023-01-02T18:12:26.387Z,77.45
2023-01-02T18:15:32.829Z,78.38
2023-01-02T18:18:39.169Z,69.95
2023-01-02T18:21:45.723Z,79.20
2023-01-02T18:24:52.653Z,88.00
2023-01-02T18:28:25.473Z,84.18
2023-01-02T18:31:35.282Z,77.47
2023-01-02T18:34:48.042Z,81.80
2023-01-02T18:37:55.853Z,84.93
2023-01-02T18:41:30.264Z,85.05
2023-01-02T18:44:35.893Z,91.75
2023-01-02T18:47:42.362Z,82.00
2023-01-02T18:51:00.438Z,84.85
2023-01-02T18:54:16.481Z,79.03
2023-01-02T18:57:23.359Z,88.70
2023-01-02T19:00:32.627Z,90.45
2023-01-02T19:03:38.911Z,95.15
2023-01-02T19:06:50.666Z,91.68
2023-01-02T19:10:08.541Z,82.82
2023-01-02T19:13:24.939Z,90.10
2023-01-02T19:16:31.156Z,117.05
2023-01-02T19:19:40.564Z,119.65
2023-01-02T19:22:46.581Z,99.22
2023-01-02T19:25:53.899Z,104.68
2023-01-02T19:29:27.912Z,95.07
2023-01-02T19:32:36.480Z,98.63
2023-01-02T19:36:00.219Z,100.72
2023-01-02T19:39:23.135Z,101.10
2023-01-02T19:42:32.356Z,94.93
2023-01-02T19:45:38.193Z,118.20
2023-01-02T19:48:44.009Z,99.28
2023-01-02T19:51:50.215Z,84.13
2023-01-02T19:54:56.222Z,94.43
2023-01-02T19:58:01.579Z,100.53
2023-01-02T20:01:07.130Z,83.63
2023-01-02T20:04:12.741Z,91.32
2023-01-02T20:07:18.584Z,94.35
2023-01-02T20:10:24.627Z,109.38
2023-01-02T20:13:31.581Z,104.82
2023-01-02T20:16:37.603Z,93.07
2023-01-02T20:19:43.489Z,113.05
2023-01-02T20:22:52.251Z,106.63
2023-01-02T20:25:57.840Z,104.55
2023-01-02T20:29:04.537Z,99.88
2023-01-02T20:32:10.903Z,105.78
2023-01-02T20:35:16.142Z,109.68
2023-01-02T20:38:21.974Z,108.43
2023-01-02T20:41:28.133Z,103.57
2023-01-02T20:44:34.352Z,102.72
2023-01-02T20:47:39.944Z,102.35
2023-01-02T20:50:46.445Z,113.40
2023-01-02T20:53:52.354Z,108.72
2023-01-02T20:56:58.007Z,93.95
2023-01-02T21:00:09.985Z,91.70
2023-01-02T21:03:15.971Z,96.53
2023-01-02T21:06:21.972Z,88.45
2023-01-02T21:09:27.559Z,97.95
2023-01-02T21:12:52.046Z,90.07
2023-01-02T21:15:58.337Z,112.25
2023-01-02T21:19:04.406Z,104.22
2023-01-02T21:22:10.305Z,111.15
2023-01-02T21:25:15.615Z,108.45
2023-01-02T21:28:22.238Z,96.30
2023-01-02T21:31:27.704Z,103.32
2023-01-02T21:34:33.263Z,94.97
2023-01-02T21:37:39.190Z,98.18
2023-01-02T21:40:45.784Z,92.95
2023-01-02T21:43:51.824Z,99.00
2023-01-02T21:46:58.363Z,106.50
2023-01-02T21:50:05.139Z,85.82
2023-01-02T21:53:10.989Z,90.72
2023-01-02T21:56:16.863Z,87.47
2023-01-02T21:59:25.494Z,103.60
2023-01-02T22:02:38.219Z,93.72
2023-01-02T22:05:44.527Z,107.00
2023-01-02T22:08:50.037Z,104.10
2023-01-02T22:11:55.661Z,104.90
2023-01-02T22:15:01.568Z,112.05
2023-01-02T22:18:06.945Z,119.18
2023-01-02T22:21:12.551Z,115.95
2023-01-02T22:24:19.170Z,134.55
2023-01-02T22:27:25.156Z,126.32
2023-01-02T22:30:34.837Z,115.22
2023-01-02T22:33:42.047Z,134.93
2023-01-02T22:36:47.881Z,143.60
2023-01-02T22:39:53.535Z,123.43
2023-01-02T22:43:02.664Z,119.70
2023-01-02T22:46:18.118Z,121.93
2023-01-02T22:49:27.124Z,127.25
2023-01-02T22:52:33.582Z,155.38
2023-01-02T22:55:40.739Z,155.75
2023-01-02T22:58:47.604Z,176.70
2023-01-02T23:01:53.542Z,130.75
2023-01-02T23:04:59.216Z,112.30
2023-01-02T23:08:05.029Z,137.32
2023-01-02T23:11:11.656Z,121.63
2023-01-02T23:14:17.155Z,119.53
2023-01-02T23:17:41.321Z,150.30
2023-01-02T23:20:46.476Z,137.27
2023-01-02T23:23:52.658Z,94.85
2023-01-02T23:27:01.137Z,99.10
2023-01-02T23:30:07.324Z,99.63
2023-01-02T23:33:12.772Z,117.30
2023-01-02T23:36:18.675Z,124.28
2023-01-02T23:39:26.954Z,117.13
2023-01-02T23:42:32.352Z,130.63
2023-01-02T23:45:38.041Z,122.47
2023-01-02T23:48:43.386Z,106.53
2023-01-02T23:51:49.303Z,150.00
2023-01-02T23:54:54.785Z,100.10
2023-01-02T23:57:59.947Z,93.03
